4O4

Mc Curtain County Regional Airport

Idabel, Oklahoma, USA
METAR K4O4 181935Z AUTO 13010KT 10SM BKN011 OVC017 12/09 A2985 RMK AO2
Observed Flight Rules
Jan-18 @ 19:35 UTC (29 minutes ago) Marginal Visual Flight Rules
Wind Visibility Clouds
130° at 10 knots 10 miles
  • Broken at 1,100' AGL
  • Overcast at 1,700' AGL
Temperatures Readings
Current 12°C / 54°F
Dewpoint 9°C / 48°F
Humidity 82%
Altimeter 29.85" Hg
Pressure 1010.82 hPa
Elevation 144
METAR K4O4 181935Z AUTO 13010KT 10SM BKN011 OVC017 12/09 A2985 RMK AO2
Observed Flight Rules
Jan-18 @ 19:35 UTC
(29 minutes ago)
MVFR
Wind Visibility
130° at 10 knots 10 miles
Clouds
  • Broken at 1,100' AGL
  • Overcast at 1,700' AGL
Temperature Dewpoint
12°C / 54°F 9°C / 48°F
Humidity Altimeter Pressure
82% 29.85" Hg 1010.82 hPa